createdAt,value
2017-12-16T00:00:01.111Z,0
2017-12-16T00:01:01.376Z,0
2017-12-16T00:02:01.397Z,0
2017-12-16T00:03:01.653Z,0
2017-12-16T00:04:01.166Z,0
2017-12-16T00:05:01.429Z,0
2017-12-16T00:06:01.435Z,0
2017-12-16T00:07:01.717Z,0
2017-12-16T00:08:01.494Z,0
2017-12-16T00:09:01.536Z,0
2017-12-16T00:10:01.474Z,0
2017-12-16T00:11:01.797Z,0
2017-12-16T00:12:01.506Z,0
2017-12-16T00:13:01.663Z,0
2017-12-16T00:14:01.322Z,0
2017-12-16T00:15:01.588Z,0
2017-12-16T00:16:01.605Z,0
2017-12-16T00:17:01.345Z,0
2017-12-16T00:18:01.896Z,0
2017-12-16T00:19:01.398Z,0
2017-12-16T00:20:01.617Z,0
2017-12-16T00:21:01.641Z,0
2017-12-16T00:22:01.945Z,0
2017-12-16T00:23:01.455Z,0
2017-12-16T00:24:01.474Z,0
2017-12-16T00:25:01.717Z,0
2017-12-16T00:26:01.968Z,0
2017-12-16T00:27:02.001Z,0
2017-12-16T00:28:01.796Z,0
2017-12-16T00:29:01.762Z,0
2017-12-16T00:30:01.807Z,0
2017-12-16T00:31:01.302Z,0
2017-12-16T00:32:01.789Z,0
2017-12-16T00:33:01.809Z,0
2017-12-16T00:34:01.831Z,0
2017-12-16T00:35:02.123Z,0
2017-12-16T00:36:02.125Z,0
2017-12-16T00:37:01.628Z,0
2017-12-16T00:38:01.878Z,0
2017-12-16T00:39:01.648Z,0
2017-12-16T00:40:02.193Z,0
2017-12-16T00:41:01.687Z,0
2017-12-16T00:42:02.008Z,0
2017-12-16T00:43:02.258Z,0
2017-12-16T00:44:01.976Z,0
2017-12-16T00:45:02.013Z,0
2017-12-16T00:46:01.994Z,0
2017-12-16T00:47:02.019Z,0
2017-12-16T00:48:02.141Z,0
2017-12-16T00:49:01.796Z,0
2017-12-16T00:50:02.309Z,0
2017-12-16T00:51:01.829Z,0
2017-12-16T00:52:02.349Z,0
2017-12-16T00:53:02.353Z,0
2017-12-16T00:54:01.620Z,0
2017-12-16T00:55:02.129Z,0
2017-12-16T00:56:02.401Z,0
2017-12-16T00:57:02.156Z,0
2017-12-16T00:58:02.223Z,0
2017-12-16T00:59:02.451Z,0
2017-12-16T01:00:01.956Z,0
2017-12-16T01:01:02.502Z,0
2017-12-16T01:02:02.482Z,0
2017-12-16T01:03:01.996Z,0
2017-12-16T01:04:02.513Z,0
2017-12-16T01:05:02.526Z,0
2017-12-16T01:06:02.555Z,0
2017-12-16T01:07:02.552Z,0
2017-12-16T01:08:02.071Z,0
2017-12-16T01:09:02.594Z,0
2017-12-16T01:10:02.608Z,0
2017-12-16T01:11:02.116Z,0
2017-12-16T01:12:02.383Z,0
2017-12-16T01:13:02.191Z,0
2017-12-16T01:14:02.428Z,0
2017-12-16T01:15:02.443Z,0
2017-12-16T01:16:02.191Z,0
2017-12-16T01:17:02.453Z,0
2017-12-16T01:18:02.221Z,0
2017-12-16T01:19:02.235Z,0
2017-12-16T01:20:02.499Z,0
2017-12-16T01:21:02.512Z,0
2017-12-16T01:22:02.531Z,0
2017-12-16T01:23:02.291Z,0
2017-12-16T01:24:02.808Z,0
2017-12-16T01:25:02.887Z,0
2017-12-16T01:26:02.604Z,0
2017-12-16T01:27:02.599Z,0
2017-12-16T01:28:02.164Z,0
2017-12-16T01:29:02.636Z,0
2017-12-16T01:30:02.668Z,0
2017-12-16T01:31:02.415Z,0
2017-12-16T01:32:02.676Z,0
2017-12-16T01:33:02.437Z,0
2017-12-16T01:34:02.473Z,0
2017-12-16T01:35:02.727Z,0
2017-12-16T01:36:02.740Z,0
2017-12-16T01:37:02.503Z,0
2017-12-16T01:38:02.778Z,0
2017-12-16T01:39:03.045Z,0
2017-12-16T01:40:02.798Z,0
2017-12-16T01:41:02.564Z,0
2017-12-16T01:42:02.344Z,0
2017-12-16T01:43:02.596Z,0
2017-12-16T01:44:03.120Z,0
2017-12-16T01:45:03.152Z,0
2017-12-16T01:46:03.135Z,0
2017-12-16T01:47:02.954Z,0
2017-12-16T01:48:02.664Z,0
2017-12-16T01:49:03.188Z,0
2017-12-16T01:50:02.694Z,0
2017-12-16T01:51:02.964Z,0
2017-12-16T01:52:02.728Z,0
2017-12-16T01:53:02.738Z,0
2017-12-16T01:54:03.016Z,0
2017-12-16T01:55:03.025Z,0
2017-12-16T01:56:03.046Z,0
2017-12-16T01:57:03.328Z,0
2017-12-16T01:58:02.574Z,0
2017-12-16T01:59:03.088Z,0
2017-12-16T02:00:02.851Z,0
2017-12-16T02:01:02.861Z,0
2017-12-16T02:02:03.181Z,0
2017-12-16T02:03:02.906Z,0
2017-12-16T02:04:02.905Z,0
2017-12-16T02:05:02.920Z,0
2017-12-16T02:06:03.189Z,0
2017-12-16T02:07:03.213Z,0
2017-12-16T02:08:03.224Z,0
2017-12-16T02:09:03.236Z,0
2017-12-16T02:10:03.506Z,0
2017-12-16T02:11:03.272Z,0
2017-12-16T02:12:03.038Z,0
2017-12-16T02:13:03.293Z,0
2017-12-16T02:14:03.307Z,0
2017-12-16T02:15:03.067Z,0
2017-12-16T02:16:03.341Z,0
2017-12-16T02:17:03.404Z,0
2017-12-16T02:18:03.626Z,0
2017-12-16T02:19:03.132Z,0
2017-12-16T02:20:03.151Z,0
2017-12-16T02:21:03.415Z,0
2017-12-16T02:22:02.922Z,0
2017-12-16T02:23:03.444Z,0
2017-12-16T02:24:02.697Z,0
2017-12-16T02:25:03.468Z,0
2017-12-16T02:26:03.484Z,0
2017-12-16T02:27:03.246Z,0
2017-12-16T02:28:03.784Z,0
2017-12-16T02:29:03.539Z,0
2017-12-16T02:30:03.290Z,0
2017-12-16T02:31:03.569Z,0
2017-12-16T02:32:03.937Z,0
2017-12-16T02:33:03.848Z,0
2017-12-16T02:34:03.864Z,0
2017-12-16T02:35:03.630Z,0
2017-12-16T02:36:03.647Z,0
2017-12-16T02:37:03.518Z,0
2017-12-16T02:38:03.676Z,0
2017-12-16T02:39:03.950Z,0
2017-12-16T02:40:03.530Z,0
2017-12-16T02:41:03.972Z,0
2017-12-16T02:42:03.986Z,0
2017-12-16T02:43:04.016Z,0
2017-12-16T02:44:04.032Z,0
2017-12-16T02:45:04.901Z,0
2017-12-16T02:46:03.546Z,0
2017-12-16T02:47:03.815Z,0
2017-12-16T02:48:04.119Z,0
2017-12-16T02:49:03.826Z,0
2017-12-16T02:50:03.852Z,0
2017-12-16T02:51:04.137Z,0
2017-12-16T02:52:03.900Z,0
2017-12-16T02:53:03.899Z,0
2017-12-16T02:54:03.909Z,0
2017-12-16T02:55:03.929Z,0
2017-12-16T02:56:03.492Z,0
2017-12-16T02:57:03.446Z,0
2017-12-16T02:58:03.971Z,0
2017-12-16T02:59:03.481Z,0
2017-12-16T03:00:04.000Z,0
2017-12-16T03:01:03.769Z,0
2017-12-16T03:02:04.294Z,0
2017-12-16T03:03:04.131Z,0
2017-12-16T03:04:04.056Z,0
2017-12-16T03:05:04.341Z,0
2017-12-16T03:06:04.333Z,0
2017-12-16T03:07:04.107Z,0
2017-12-16T03:08:04.114Z,0
2017-12-16T03:09:04.382Z,0
2017-12-16T03:10:03.899Z,0
2017-12-16T03:11:04.413Z,0
2017-12-16T03:12:04.181Z,0
2017-12-16T03:13:04.448Z,0
2017-12-16T03:14:04.209Z,0
2017-12-16T03:15:04.481Z,0
2017-12-16T03:16:03.984Z,0
2017-12-16T03:17:04.262Z,0
2017-12-16T03:18:04.320Z,0
2017-12-16T03:19:04.284Z,0
2017-12-16T03:20:04.297Z,0
2017-12-16T03:21:04.565Z,0
2017-12-16T03:22:04.327Z,0
2017-12-16T03:23:04.342Z,0
2017-12-16T03:24:03.848Z,0
2017-12-16T03:25:04.120Z,0
2017-12-16T03:26:04.399Z,0
2017-12-16T03:27:04.651Z,0
2017-12-16T03:28:04.418Z,0
2017-12-16T03:29:04.692Z,0
2017-12-16T03:30:04.445Z,0
2017-12-16T03:31:04.472Z,0
2017-12-16T03:32:04.479Z,0
2017-12-16T03:33:04.293Z,0
2017-12-16T03:34:04.507Z,0
2017-12-16T03:35:04.526Z,0
2017-12-16T03:36:04.281Z,0
2017-12-16T03:37:04.310Z,0
2017-12-16T03:38:04.061Z,0
2017-12-16T03:39:04.335Z,0
2017-12-16T03:40:04.346Z,0
2017-12-16T03:41:04.615Z,0
2017-12-16T03:42:04.379Z,0
2017-12-16T03:43:04.650Z,0
2017-12-16T03:44:04.910Z,0
2017-12-16T03:45:04.928Z,0
2017-12-16T03:46:04.434Z,0
2017-12-16T03:47:04.448Z,0
2017-12-16T03:48:04.516Z,0
2017-12-16T03:49:04.538Z,0
2017-12-16T03:50:05.006Z,0
2017-12-16T03:51:04.510Z,0
2017-12-16T03:52:04.524Z,0
2017-12-16T03:53:04.560Z,0
2017-12-16T03:54:04.814Z,0
2017-12-16T03:55:04.561Z,0
2017-12-16T03:56:04.577Z,0
2017-12-16T03:57:04.847Z,0
2017-12-16T03:58:04.870Z,0
2017-12-16T03:59:04.627Z,0
2017-12-16T04:00:04.895Z,0
2017-12-16T04:01:04.655Z,0
2017-12-16T04:02:04.920Z,0
2017-12-16T04:03:04.991Z,0
2017-12-16T04:04:04.957Z,0
2017-12-16T04:05:04.716Z,0
2017-12-16T04:06:04.982Z,0
2017-12-16T04:07:04.743Z,0
2017-12-16T04:08:05.064Z,0
2017-12-16T04:09:05.028Z,0
2017-12-16T04:10:05.040Z,0
2017-12-16T04:11:05.059Z,0
2017-12-16T04:12:04.822Z,0
2017-12-16T04:13:05.145Z,0
2017-12-16T04:14:05.357Z,0
2017-12-16T04:15:05.126Z,0
2017-12-16T04:16:04.628Z,0
2017-12-16T04:17:05.145Z,0
2017-12-16T04:18:05.465Z,0
2017-12-16T04:19:05.427Z,0
2017-12-16T04:20:05.209Z,0
2017-12-16T04:21:05.203Z,0
2017-12-16T04:22:05.230Z,0
2017-12-16T04:23:05.234Z,0
2017-12-16T04:24:05.252Z,0
2017-12-16T04:25:05.260Z,0
2017-12-16T04:26:05.030Z,0
2017-12-16T04:27:05.038Z,0
2017-12-16T04:28:05.055Z,0
2017-12-16T04:29:05.571Z,0
2017-12-16T04:30:05.098Z,0
2017-12-16T04:31:05.361Z,0
2017-12-16T04:32:05.376Z,0
2017-12-16T04:33:05.377Z,0
2017-12-16T04:34:05.395Z,0
2017-12-16T04:35:05.212Z,0
2017-12-16T04:36:05.172Z,0
2017-12-16T04:37:05.708Z,0
2017-12-16T04:38:04.947Z,0
2017-12-16T04:39:05.478Z,0
2017-12-16T04:40:05.228Z,0
2017-12-16T04:41:05.498Z,0
2017-12-16T04:42:05.516Z,0
2017-12-16T04:43:05.531Z,0
2017-12-16T04:44:05.546Z,0
2017-12-16T04:45:05.580Z,0
2017-12-16T04:46:05.531Z,0
2017-12-16T04:47:05.592Z,0
2017-12-16T04:48:05.600Z,0
2017-12-16T04:49:05.614Z,0
2017-12-16T04:50:05.428Z,0
2017-12-16T04:51:05.396Z,0
2017-12-16T04:52:05.659Z,0
2017-12-16T04:53:05.935Z,0
2017-12-16T04:54:05.441Z,0
2017-12-16T04:55:06.711Z,0
2017-12-16T04:56:05.468Z,0
2017-12-16T04:57:05.499Z,0
2017-12-16T04:58:05.748Z,0
2017-12-16T04:59:06.025Z,0
2017-12-16T05:00:05.526Z,0
2017-12-16T05:01:05.817Z,0
2017-12-16T05:02:05.814Z,0
2017-12-16T05:03:05.828Z,0
2017-12-16T05:04:05.593Z,0
2017-12-16T05:05:07.170Z,0
2017-12-16T05:06:06.124Z,0
2017-12-16T05:07:06.136Z,0
2017-12-16T05:08:05.907Z,0
2017-12-16T05:09:05.423Z,0
2017-12-16T05:10:05.683Z,0
2017-12-16T05:11:05.694Z,0
2017-12-16T05:12:05.712Z,0
2017-12-16T05:13:06.232Z,0
2017-12-16T05:14:05.739Z,0
2017-12-16T05:15:06.010Z,0
2017-12-16T05:16:06.028Z,0
2017-12-16T05:17:06.030Z,0
2017-12-16T05:18:05.805Z,0
2017-12-16T05:19:05.806Z,0
2017-12-16T05:20:06.562Z,0
2017-12-16T05:21:06.088Z,0
2017-12-16T05:22:06.102Z,0
2017-12-16T05:23:06.112Z,0
2017-12-16T05:24:05.873Z,0
2017-12-16T05:25:05.890Z,0
2017-12-16T05:26:06.417Z,0
2017-12-16T05:27:05.913Z,0
2017-12-16T05:28:06.192Z,0
2017-12-16T05:29:05.951Z,0
2017-12-16T05:30:06.217Z,0
2017-12-16T05:31:05.970Z,0
2017-12-16T05:32:05.983Z,0
2017-12-16T05:33:06.505Z,0
2017-12-16T05:34:06.010Z,0
2017-12-16T05:35:06.581Z,0
2017-12-16T05:36:05.795Z,0
2017-12-16T05:37:06.059Z,0
2017-12-16T05:38:06.076Z,0
2017-12-16T05:39:06.593Z,0
2017-12-16T05:40:06.346Z,0
2017-12-16T05:41:06.618Z,0
2017-12-16T05:42:06.382Z,0
2017-12-16T05:43:06.413Z,0
2017-12-16T05:44:06.410Z,0
2017-12-16T05:45:06.424Z,0
2017-12-16T05:46:06.430Z,0
2017-12-16T05:47:06.211Z,0
2017-12-16T05:48:06.455Z,0
2017-12-16T05:49:05.972Z,0
2017-12-16T05:50:06.533Z,0
2017-12-16T05:51:06.246Z,0
2017-12-16T05:52:06.324Z,0
2017-12-16T05:53:06.568Z,0
2017-12-16T05:54:06.554Z,0
2017-12-16T05:55:06.554Z,0
2017-12-16T05:56:06.321Z,0
2017-12-16T05:57:06.093Z,0
2017-12-16T05:58:06.841Z,0
2017-12-16T05:59:06.604Z,0
2017-12-16T06:00:06.369Z,0
2017-12-16T06:01:06.886Z,0
2017-12-16T06:02:06.901Z,0
2017-12-16T06:03:06.917Z,0
2017-12-16T06:04:06.933Z,0
2017-12-16T06:05:06.995Z,0
2017-12-16T06:06:06.453Z,0
2017-12-16T06:07:06.969Z,0
2017-12-16T06:08:06.763Z,0
2017-12-16T06:09:06.502Z,0
2017-12-16T06:10:06.526Z,0
2017-12-16T06:11:06.521Z,0
2017-12-16T06:12:06.794Z,0
2017-12-16T06:13:06.555Z,0
2017-12-16T06:14:07.071Z,0
2017-12-16T06:15:07.100Z,0
2017-12-16T06:16:06.845Z,0
2017-12-16T06:17:07.103Z,0
2017-12-16T06:18:07.124Z,0
2017-12-16T06:19:06.897Z,0
2017-12-16T06:20:06.947Z,0
2017-12-16T06:21:06.658Z,0
2017-12-16T06:22:06.928Z,0
2017-12-16T06:23:06.948Z,0
2017-12-16T06:24:06.707Z,0
2017-12-16T06:25:06.967Z,0
2017-12-16T06:26:06.476Z,0
2017-12-16T06:27:07.005Z,0
2017-12-16T06:28:07.271Z,0
2017-12-16T06:29:07.021Z,0
2017-12-16T06:30:07.041Z,0
2017-12-16T06:31:07.062Z,0
2017-12-16T06:32:07.068Z,0
2017-12-16T06:33:06.835Z,0
2017-12-16T06:34:07.354Z,0
2017-12-16T06:35:07.133Z,0
2017-12-16T06:36:07.181Z,0
2017-12-16T06:37:07.144Z,0
2017-12-16T06:38:07.157Z,0
2017-12-16T06:39:07.175Z,0
2017-12-16T06:40:06.930Z,0
2017-12-16T06:41:07.455Z,0
2017-12-16T06:42:07.257Z,0
2017-12-16T06:43:07.479Z,0
2017-12-16T06:44:07.491Z,0
2017-12-16T06:45:07.004Z,0
2017-12-16T06:46:07.582Z,0
2017-12-16T06:47:07.540Z,0
2017-12-16T06:48:07.314Z,0
2017-12-16T06:49:07.313Z,0
2017-12-16T06:50:07.321Z,0
2017-12-16T06:51:07.485Z,0
2017-12-16T06:52:07.370Z,0
2017-12-16T06:53:07.622Z,0
2017-12-16T06:54:07.381Z,0
2017-12-16T06:55:07.401Z,0
2017-12-16T06:56:07.663Z,0
2017-12-16T06:57:07.432Z,0
2017-12-16T06:58:07.448Z,5
2017-12-16T06:59:07.457Z,5
2017-12-16T07:00:07.539Z,5
2017-12-16T07:01:07.484Z,5
2017-12-16T07:02:07.746Z,5
2017-12-16T07:03:07.514Z,5
2017-12-16T07:04:07.534Z,5
2017-12-16T07:05:07.287Z,5
2017-12-16T07:06:07.356Z,5
2017-12-16T07:07:07.580Z,10
2017-12-16T07:08:07.341Z,10
2017-12-16T07:09:07.614Z,10
2017-12-16T07:10:07.869Z,10
2017-12-16T07:11:07.620Z,10
2017-12-16T07:12:07.656Z,10
2017-12-16T07:13:07.396Z,10
2017-12-16T07:14:07.666Z,10
2017-12-16T07:15:07.883Z,10
2017-12-16T07:16:07.694Z,15
2017-12-16T07:17:07.959Z,15
2017-12-16T07:18:07.970Z,15
2017-12-16T07:19:07.741Z,15
2017-12-16T07:20:07.498Z,15
2017-12-16T07:21:07.812Z,20
2017-12-16T07:22:07.521Z,20
2017-12-16T07:23:07.815Z,25
2017-12-16T07:24:07.559Z,30
2017-12-16T07:25:07.820Z,30
2017-12-16T07:26:08.107Z,35
2017-12-16T07:27:07.848Z,40
2017-12-16T07:28:07.604Z,40
2017-12-16T07:29:07.370Z,45
2017-12-16T07:30:07.902Z,45
2017-12-16T07:31:07.979Z,50
2017-12-16T07:32:07.920Z,50
2017-12-16T07:33:07.676Z,50
2017-12-16T07:34:07.946Z,55
2017-12-16T07:35:08.210Z,55
2017-12-16T07:36:08.033Z,60
2017-12-16T07:37:07.751Z,60
2017-12-16T07:38:08.306Z,65
2017-12-16T07:39:08.015Z,65
2017-12-16T07:40:07.522Z,65
2017-12-16T07:41:08.057Z,65
2017-12-16T07:42:08.057Z,70
2017-12-16T07:43:08.065Z,75
2017-12-16T07:44:08.087Z,75
2017-12-16T07:45:08.354Z,80
2017-12-16T07:46:08.119Z,80
2017-12-16T07:47:08.127Z,85
2017-12-16T07:48:07.885Z,85
2017-12-16T07:49:08.156Z,90
2017-12-16T07:50:08.429Z,95
2017-12-16T07:51:08.232Z,95
2017-12-16T07:52:08.206Z,100
2017-12-16T07:53:07.955Z,105
2017-12-16T07:54:07.970Z,105
2017-12-16T07:55:07.985Z,100
2017-12-16T07:56:08.255Z,105
2017-12-16T07:57:08.264Z,100
2017-12-16T07:58:08.526Z,100
2017-12-16T07:59:07.788Z,100
2017-12-16T08:00:08.314Z,95
2017-12-16T08:01:08.323Z,95
2017-12-16T08:02:08.333Z,95
2017-12-16T08:03:08.351Z,100
2017-12-16T08:04:08.622Z,100
2017-12-16T08:05:08.628Z,95
2017-12-16T08:06:08.688Z,100
2017-12-16T08:07:08.646Z,95
2017-12-16T08:08:08.412Z,95
2017-12-16T08:09:08.184Z,95
2017-12-16T08:10:08.446Z,95
2017-12-16T08:11:08.820Z,90
2017-12-16T08:12:08.727Z,90
2017-12-16T08:13:07.988Z,90
2017-12-16T08:14:08.515Z,85
2017-12-16T08:15:08.520Z,80
2017-12-16T08:16:08.531Z,80
2017-12-16T08:17:08.797Z,80
2017-12-16T08:18:08.560Z,80
2017-12-16T08:19:08.321Z,85
2017-12-16T08:20:08.538Z,85
2017-12-16T08:21:08.664Z,85
2017-12-16T08:22:08.376Z,80
2017-12-16T08:23:08.383Z,85
2017-12-16T08:24:08.396Z,80
2017-12-16T08:25:08.657Z,80
2017-12-16T08:26:08.418Z,75
2017-12-16T08:27:08.688Z,75
2017-12-16T08:28:08.465Z,70
2017-12-16T08:29:08.717Z,65
2017-12-16T08:30:08.473Z,60
2017-12-16T08:31:08.489Z,60
2017-12-16T08:32:09.008Z,60
2017-12-16T08:33:08.513Z,60
2017-12-16T08:34:08.790Z,65
2017-12-16T08:35:08.544Z,65
2017-12-16T08:36:09.121Z,70
2017-12-16T08:37:08.570Z,75
2017-12-16T08:38:08.841Z,75
2017-12-16T08:39:08.856Z,75
2017-12-16T08:40:09.121Z,80
2017-12-16T08:41:08.883Z,85
2017-12-16T08:42:09.161Z,90
2017-12-16T08:43:08.656Z,90
2017-12-16T08:44:09.182Z,95
2017-12-16T08:45:08.945Z,95
2017-12-16T08:46:08.440Z,95
2017-12-16T08:47:08.708Z,85
2017-12-16T08:48:08.981Z,75
2017-12-16T08:49:09.238Z,70
2017-12-16T08:50:08.548Z,70
2017-12-16T08:51:09.324Z,65
2017-12-16T08:52:08.785Z,65
2017-12-16T08:53:09.057Z,60
2017-12-16T08:54:09.311Z,60
2017-12-16T08:55:09.079Z,60
2017-12-16T08:56:09.084Z,60
2017-12-16T08:57:09.416Z,55
2017-12-16T08:58:09.374Z,55
2017-12-16T08:59:08.889Z,55
2017-12-16T09:00:08.640Z,55
2017-12-16T09:01:08.927Z,55
2017-12-16T09:02:09.176Z,60
2017-12-16T09:03:08.933Z,60
2017-12-16T09:04:09.218Z,65
2017-12-16T09:05:09.216Z,65
2017-12-16T09:06:09.278Z,65
2017-12-16T09:07:09.498Z,65
2017-12-16T09:08:09.003Z,65
2017-12-16T09:09:09.279Z,70
2017-12-16T09:10:09.288Z,75
2017-12-16T09:11:09.306Z,85
2017-12-16T09:12:09.367Z,85
2017-12-16T09:13:09.589Z,80
2017-12-16T09:14:08.841Z,85
2017-12-16T09:15:09.099Z,90
2017-12-16T09:16:09.366Z,95
2017-12-16T09:17:09.653Z,95
2017-12-16T09:18:09.144Z,100
2017-12-16T09:19:09.408Z,100
2017-12-16T09:20:09.237Z,100
2017-12-16T09:21:09.236Z,115
2017-12-16T09:22:09.222Z,115
2017-12-16T09:23:09.471Z,110
2017-12-16T09:24:09.488Z,105
2017-12-16T09:25:09.239Z,115
2017-12-16T09:26:09.509Z,125
2017-12-16T09:27:09.268Z,135
2017-12-16T09:28:09.299Z,130
2017-12-16T09:29:09.806Z,125
2017-12-16T09:30:09.564Z,135
2017-12-16T09:31:09.330Z,135
2017-12-16T09:32:09.845Z,135
2017-12-16T09:33:09.108Z,130
2017-12-16T09:34:09.112Z,120
2017-12-16T09:35:09.890Z,120
2017-12-16T09:36:09.711Z,120
2017-12-16T09:37:09.925Z,130
2017-12-16T09:38:09.634Z,135
2017-12-16T09:39:09.709Z,130
2017-12-16T09:40:09.714Z,125
2017-12-16T09:41:09.829Z,125
2017-12-16T09:42:09.489Z,125
2017-12-16T09:43:10.007Z,125
2017-12-16T09:44:09.772Z,130
2017-12-16T09:45:09.787Z,135
2017-12-16T09:46:09.807Z,140
2017-12-16T09:47:09.814Z,160
2017-12-16T09:48:09.834Z,185
2017-12-16T09:49:10.090Z,200
2017-12-16T09:50:09.602Z,215
2017-12-16T09:51:09.869Z,205
2017-12-16T09:52:09.899Z,195
2017-12-16T09:53:09.644Z,185
2017-12-16T09:54:10.158Z,185
2017-12-16T09:55:09.422Z,180
2017-12-16T09:56:10.199Z,180
2017-12-16T09:57:10.217Z,180
2017-12-16T09:58:09.726Z,175
2017-12-16T09:59:09.484Z,170
2017-12-16T10:00:09.743Z,155
2017-12-16T10:01:10.008Z,145
2017-12-16T10:02:09.777Z,140
2017-12-16T10:03:09.789Z,140
2017-12-16T10:04:10.063Z,135
2017-12-16T10:05:10.069Z,125
2017-12-16T10:06:10.092Z,120
2017-12-16T10:07:10.359Z,115
2017-12-16T10:08:10.113Z,105
2017-12-16T10:09:09.943Z,105
2017-12-16T10:10:10.406Z,110
2017-12-16T10:11:10.416Z,115
2017-12-16T10:12:09.919Z,130
2017-12-16T10:13:09.935Z,135
2017-12-16T10:14:10.463Z,145
2017-12-16T10:15:10.227Z,150
2017-12-16T10:16:09.721Z,165
2017-12-16T10:17:09.993Z,170
2017-12-16T10:18:10.509Z,175
2017-12-16T10:19:10.025Z,170
2017-12-16T10:20:10.648Z,155
2017-12-16T10:21:10.304Z,145
2017-12-16T10:22:10.567Z,130
2017-12-16T10:23:10.587Z,120
2017-12-16T10:24:10.662Z,115
2017-12-16T10:25:10.378Z,120
2017-12-16T10:26:10.370Z,130
2017-12-16T10:27:10.394Z,125
2017-12-16T10:28:09.942Z,110
2017-12-16T10:29:10.417Z,110
2017-12-16T10:30:10.436Z,110
2017-12-16T10:31:09.941Z,100
2017-12-16T10:32:10.204Z,95
2017-12-16T10:33:10.476Z,90
2017-12-16T10:34:10.488Z,95
2017-12-16T10:35:10.250Z,100
2017-12-16T10:36:10.764Z,105
2017-12-16T10:37:10.275Z,100
2017-12-16T10:38:10.286Z,95
2017-12-16T10:39:10.367Z,90
2017-12-16T10:40:10.070Z,100
2017-12-16T10:41:10.590Z,115
2017-12-16T10:42:10.091Z,130
2017-12-16T10:43:10.873Z,135
2017-12-16T10:44:10.372Z,135
2017-12-16T10:45:10.642Z,130
2017-12-16T10:46:10.930Z,125
2017-12-16T10:47:10.428Z,120
2017-12-16T10:48:10.687Z,135
2017-12-16T10:49:10.704Z,125
2017-12-16T10:50:10.716Z,125
2017-12-16T10:51:10.731Z,155
2017-12-16T10:52:10.753Z,200
2017-12-16T10:53:10.506Z,560
2017-12-16T10:54:10.772Z,235
2017-12-16T10:55:10.898Z,235
2017-12-16T10:56:11.054Z,230
2017-12-16T10:57:10.817Z,130
2017-12-16T10:58:10.580Z,100
2017-12-16T10:59:10.590Z,90
2017-12-16T11:00:10.362Z,85
2017-12-16T11:01:10.617Z,85
2017-12-16T11:02:10.882Z,85
2017-12-16T11:03:10.643Z,105
2017-12-16T11:04:10.911Z,115
2017-12-16T11:05:10.930Z,135
2017-12-16T11:06:11.046Z,140
2017-12-16T11:07:10.706Z,140
2017-12-16T11:08:10.474Z,140
2017-12-16T11:09:11.241Z,150
2017-12-16T11:10:10.803Z,140
2017-12-16T11:11:11.015Z,135
2017-12-16T11:12:11.286Z,140
2017-12-16T11:13:11.302Z,140
2017-12-16T11:14:10.556Z,135
2017-12-16T11:15:11.092Z,125
2017-12-16T11:16:11.291Z,125
2017-12-16T11:17:11.358Z,130
2017-12-16T11:18:10.867Z,125
2017-12-16T11:19:11.391Z,125
2017-12-16T11:20:10.901Z,120
2017-12-16T11:21:11.166Z,115
2017-12-16T11:22:10.681Z,115
2017-12-16T11:23:11.187Z,100
2017-12-16T11:24:11.467Z,95
2017-12-16T11:25:11.523Z,95
2017-12-16T11:26:10.986Z,85
2017-12-16T11:27:11.003Z,80
2017-12-16T11:28:11.512Z,80
2017-12-16T11:29:11.282Z,80
2017-12-16T11:30:11.557Z,80
2017-12-16T11:31:11.075Z,75
2017-12-16T11:32:11.074Z,80
2017-12-16T11:33:11.588Z,90
2017-12-16T11:34:11.611Z,100
2017-12-16T11:35:11.372Z,110
2017-12-16T11:36:11.692Z,110
2017-12-16T11:37:11.453Z,110
2017-12-16T11:38:11.162Z,115
2017-12-16T11:39:11.421Z,120
2017-12-16T11:40:12.763Z,130
2017-12-16T11:41:11.702Z,135
2017-12-16T11:42:11.472Z,120
2017-12-16T11:43:11.266Z,105
2017-12-16T11:44:11.503Z,90
2017-12-16T11:45:11.784Z,85
2017-12-16T11:46:11.531Z,75
2017-12-16T11:47:11.035Z,70
2017-12-16T11:48:11.812Z,65
2017-12-16T11:49:11.579Z,75
2017-12-16T11:50:11.583Z,75
2017-12-16T11:51:11.853Z,75
2017-12-16T11:52:11.874Z,90
2017-12-16T11:53:11.635Z,100
2017-12-16T11:54:11.655Z,100
2017-12-16T11:55:11.971Z,100
2017-12-16T11:56:11.164Z,110
2017-12-16T11:57:11.683Z,105
2017-12-16T11:58:11.708Z,100
2017-12-16T11:59:11.464Z,105
2017-12-16T12:00:11.982Z,110
2017-12-16T12:01:11.740Z,120
2017-12-16T12:02:11.759Z,125
2017-12-16T12:03:11.518Z,130
2017-12-16T12:04:11.788Z,135
2017-12-16T12:05:11.546Z,140
2017-12-16T12:06:11.822Z,145
2017-12-16T12:07:11.858Z,150
2017-12-16T12:08:11.335Z,160
2017-12-16T12:09:11.602Z,170
2017-12-16T12:10:11.410Z,175
2017-12-16T12:11:12.143Z,175
2017-12-16T12:12:12.148Z,165
2017-12-16T12:13:12.182Z,160
2017-12-16T12:14:11.935Z,160
2017-12-16T12:15:12.197Z,170
2017-12-16T12:16:11.954Z,170
2017-12-16T12:17:11.467Z,155
2017-12-16T12:18:11.741Z,160
2017-12-16T12:19:12.009Z,185
2017-12-16T12:20:12.020Z,165
2017-12-16T12:21:12.285Z,165
2017-12-16T12:22:11.794Z,150
2017-12-16T12:23:11.818Z,165
2017-12-16T12:24:12.075Z,165
2017-12-16T12:25:12.151Z,200
2017-12-16T12:26:12.103Z,210
2017-12-16T12:27:12.122Z,220
2017-12-16T12:28:12.136Z,195
2017-12-16T12:29:12.399Z,180
2017-12-16T12:30:12.170Z,170
2017-12-16T12:31:12.435Z,150
2017-12-16T12:32:12.194Z,145
2017-12-16T12:33:11.785Z,140
2017-12-16T12:34:11.975Z,125
2017-12-16T12:35:12.234Z,110
2017-12-16T12:36:12.501Z,105
2017-12-16T12:37:12.009Z,150
2017-12-16T12:38:12.034Z,135
2017-12-16T12:39:12.330Z,125
2017-12-16T12:40:12.363Z,125
2017-12-16T12:41:12.077Z,130
2017-12-16T12:42:12.352Z,125
2017-12-16T12:43:12.360Z,100
2017-12-16T12:44:12.114Z,85
2017-12-16T12:45:11.897Z,75
2017-12-16T12:46:12.395Z,70
2017-12-16T12:47:12.407Z,70
2017-12-16T12:48:12.676Z,60
2017-12-16T12:49:12.190Z,60
2017-12-16T12:50:12.470Z,55
2017-12-16T12:51:12.814Z,45
2017-12-16T12:52:12.750Z,45
2017-12-16T12:53:12.751Z,45
2017-12-16T12:54:12.784Z,45
2017-12-16T12:55:12.849Z,45
2017-12-16T12:56:12.546Z,50
2017-12-16T12:57:12.809Z,50
2017-12-16T12:58:12.319Z,45
2017-12-16T12:59:12.584Z,45
2017-12-16T13:00:12.700Z,45
2017-12-16T13:01:12.365Z,40
2017-12-16T13:02:12.378Z,40
2017-12-16T13:03:12.646Z,40
2017-12-16T13:04:12.152Z,35
2017-12-16T13:05:12.676Z,40
2017-12-16T13:06:12.745Z,50
2017-12-16T13:07:12.918Z,50
2017-12-16T13:08:12.429Z,55
2017-12-16T13:09:12.701Z,60
2017-12-16T13:10:13.015Z,55
2017-12-16T13:11:12.473Z,50
2017-12-16T13:12:12.492Z,55
2017-12-16T13:13:12.752Z,60
2017-12-16T13:14:12.771Z,55
2017-12-16T13:15:12.785Z,55
2017-12-16T13:16:12.580Z,60
2017-12-16T13:17:12.590Z,65
2017-12-16T13:18:12.865Z,65
2017-12-16T13:19:13.126Z,65
2017-12-16T13:20:12.900Z,65
2017-12-16T13:21:12.431Z,65
2017-12-16T13:22:12.923Z,65
2017-12-16T13:23:12.939Z,60
2017-12-16T13:24:12.943Z,60
2017-12-16T13:25:12.702Z,60
2017-12-16T13:26:13.021Z,60
2017-12-16T13:27:12.979Z,55
2017-12-16T13:28:13.260Z,45
2017-12-16T13:29:13.016Z,40
2017-12-16T13:30:12.779Z,35
2017-12-16T13:31:12.813Z,30
2017-12-16T13:32:13.325Z,25
2017-12-16T13:33:12.570Z,25
2017-12-16T13:34:13.098Z,20
2017-12-16T13:35:12.596Z,20
2017-12-16T13:36:13.218Z,15
2017-12-16T13:37:13.131Z,15
2017-12-16T13:38:13.397Z,15
2017-12-16T13:39:13.161Z,10
2017-12-16T13:40:13.175Z,10
2017-12-16T13:41:12.989Z,10
2017-12-16T13:42:13.207Z,10
2017-12-16T13:43:13.242Z,10
2017-12-16T13:44:13.235Z,10
2017-12-16T13:45:13.245Z,10
2017-12-16T13:46:13.014Z,10
2017-12-16T13:47:13.528Z,15
2017-12-16T13:48:13.040Z,20
2017-12-16T13:49:13.555Z,20
2017-12-16T13:50:13.065Z,15
2017-12-16T13:51:13.592Z,15
2017-12-16T13:52:13.362Z,10
2017-12-16T13:53:13.110Z,10
2017-12-16T13:54:12.877Z,10
2017-12-16T13:55:13.635Z,10
2017-12-16T13:56:13.741Z,10
2017-12-16T13:57:13.438Z,15
2017-12-16T13:58:13.691Z,15
2017-12-16T13:59:13.720Z,10
2017-12-16T14:00:13.460Z,15
2017-12-16T14:01:13.231Z,20
2017-12-16T14:02:13.232Z,20
2017-12-16T14:03:13.797Z,20
2017-12-16T14:04:13.258Z,20
2017-12-16T14:05:13.543Z,15
2017-12-16T14:06:13.533Z,15
2017-12-16T14:07:13.571Z,20
2017-12-16T14:08:13.560Z,20
2017-12-16T14:09:13.862Z,20
2017-12-16T14:10:13.101Z,20
2017-12-16T14:11:13.669Z,20
2017-12-16T14:12:13.107Z,20
2017-12-16T14:13:13.627Z,20
2017-12-16T14:14:13.637Z,15
2017-12-16T14:15:13.674Z,15
2017-12-16T14:16:13.692Z,15
2017-12-16T14:17:13.693Z,15
2017-12-16T14:18:13.451Z,15
2017-12-16T14:19:13.219Z,15
2017-12-16T14:20:13.990Z,15
2017-12-16T14:21:13.224Z,15
2017-12-16T14:22:14.005Z,15
2017-12-16T14:23:13.526Z,15
2017-12-16T14:39:43.230Z,5